Time;durP1;ratioP1;P1;durP2;ratioP2;P2;SDS_P1;SDS_P2;PMS_P1;PMS_P2;Temp;Humidity;BMP_temperature;BMP_pressure;BME280_temperature;BME280_humidity;BME280_pressure;Samples;Min_cycle;Max_cycle;Signal;HPM_P1;HPM_P2
2021/12/05 00:17:54;;;;;;;11.98;9.07;;;;;;;0.83;100.00;95138.44;6206545;23;20027;-66
2021/12/05 00:23:16;;;;;;;11.57;10.20;;;;;;;0.84;100.00;95134.94;6204625;23;20340;-66
2021/12/05 00:25:47;;;;;;;13.45;9.77;;;;;;;0.86;100.00;95127.03;6154935;23;20032;-66
2021/12/05 00:28:42;;;;;;;13.73;11.50;;;;;;;0.87;100.00;95125.28;6205230;23;20455;-66
2021/12/05 00:42:09;;;;;;;9.68;8.70;;;;;;;0.69;100.00;95097.00;6206893;23;20016;-65
2021/12/05 00:58:43;;;;;;;20.55;14.65;;;;;;;0.62;100.00;95081.00;6207151;23;20104;-65
2021/12/05 01:15:55;;;;;;;17.25;14.00;;;;;;;0.62;100.00;95052.50;6206804;23;20084;-66
2021/12/05 01:18:21;;;;;;;19.98;16.48;;;;;;;0.66;100.00;95046.22;6206555;23;20049;-65
2021/12/05 01:20:54;;;;;;;19.52;17.00;;;;;;;0.64;100.00;95045.47;6206999;23;20009;-65
2021/12/05 01:26:27;;;;;;;17.52;15.65;;;;;;;0.84;100.00;95043.38;6193837;23;20016;-65
2021/12/05 01:36:41;;;;;;;15.45;13.70;;;;;;;0.50;100.00;95035.16;6205376;23;20012;-65
2021/12/05 01:50:29;;;;;;;15.07;13.45;;;;;;;0.46;100.00;95008.63;6205938;23;20039;-65
2021/12/05 02:12:23;;;;;;;9.85;8.52;;;;;;;0.34;100.00;95001.63;6205612;23;20352;-65
2021/12/05 02:36:53;;;;;;;9.38;5.65;;;;;;;0.38;100.00;94964.25;6205159;23;20016;-65
2021/12/05 02:42:14;;;;;;;10.88;3.53;;;;;;;0.36;100.00;94950.56;6205198;23;20081;-65
2021/12/05 02:44:41;;;;;;;6.40;3.00;;;;;;;0.37;100.00;94942.69;6205684;23;20320;-67
2021/12/05 02:47:13;;;;;;;4.15;3.10;;;;;;;0.39;100.00;94948.59;6204701;23;20009;-65
2021/12/05 02:49:42;;;;;;;5.65;4.03;;;;;;;0.41;100.00;94938.16;6205405;23;20146;-65
2021/12/05 02:52:11;;;;;;;9.18;4.20;;;;;;;0.47;100.00;94929.97;6205171;23;20451;-65
2021/12/05 02:54:47;;;;;;;5.28;4.32;;;;;;;0.43;100.00;94923.34;6204488;23;20009;-65
2021/12/05 02:57:13;;;;;;;8.32;4.10;;;;;;;0.42;100.00;94925.09;6206863;23;20004;-65
2021/12/05 02:59:48;;;;;;;4.45;3.80;;;;;;;0.37;100.00;94921.97;6205884;23;20005;-65
2021/12/05 03:02:17;;;;;;;7.28;3.65;;;;;;;0.33;100.00;94917.94;6206876;23;20009;-65
2021/12/05 03:04:49;;;;;;;6.45;4.43;;;;;;;0.34;100.00;94916.19;6206955;23;20411;-65
2021/12/05 03:07:20;;;;;;;7.47;4.28;;;;;;;0.32;100.00;94907.66;6205137;23;20515;-65
2021/12/05 03:09:46;;;;;;;10.23;4.07;;;;;;;0.26;100.00;94893.38;6207012;23;20083;-65
2021/12/05 03:12:17;;;;;;;10.85;4.10;;;;;;;0.26;100.00;94893.38;6206379;23;20004;-65
2021/12/05 03:14:45;;;;;;;10.60;5.80;;;;;;;0.32;100.00;94892.13;6206841;23;20071;-65
2021/12/05 03:17:11;;;;;;;11.23;5.32;;;;;;;0.16;100.00;94882.78;6206208;23;20005;-65
2021/12/05 03:19:36;;;;;;;10.68;5.25;;;;;;;0.04;100.00;94879.22;6206558;23;20011;-65
2021/12/05 03:22:02;;;;;;;9.43;5.03;;;;;;;-0.06;100.00;94880.69;6205875;23;20024;-65
2021/12/05 03:24:29;;;;;;;10.68;5.32;;;;;;;-0.12;100.00;94875.91;6180394;22;20005;-66
2021/12/05 03:26:55;;;;;;;8.20;5.28;;;;;;;-0.21;100.00;94885.09;6205652;23;20024;-65
2021/12/05 03:29:22;;;;;;;8.02;4.78;;;;;;;-0.23;100.00;94884.34;6206752;23;20385;-65
2021/12/05 03:31:48;;;;;;;8.50;6.03;;;;;;;-0.20;100.00;94884.16;6206427;23;20443;-65
2021/12/05 03:34:16;;;;;;;7.03;5.75;;;;;;;-0.25;100.00;94881.84;6205761;23;20733;-65
2021/12/05 03:36:49;;;;;;;15.93;9.85;;;;;;;-0.14;100.00;94870.81;6206483;23;20001;-65
2021/12/05 03:39:16;;;;;;;16.23;10.40;;;;;;;-0.23;100.00;94876.59;6207730;23;20008;-65
2021/12/05 03:41:43;;;;;;;14.95;9.00;;;;;;;-0.32;100.00;94872.81;6207038;23;20444;-65
2021/12/05 03:44:12;;;;;;;19.25;12.05;;;;;;;-0.38;100.00;94874.03;6206595;23;20000;-65
2021/12/05 03:46:38;;;;;;;18.77;12.43;;;;;;;-0.43;100.00;94873.50;6207093;23;20087;-65
2021/12/05 03:49:08;;;;;;;20.75;13.88;;;;;;;-0.38;100.00;94873.22;6207087;22;20008;-64
2021/12/05 03:51:36;;;;;;;23.02;14.00;;;;;;;-0.42;100.00;94874.34;6206897;23;20009;-65
2021/12/05 03:54:05;;;;;;;18.02;13.15;;;;;;;-0.49;100.00;94866.94;6207089;23;20010;-65
2021/12/05 03:56:30;;;;;;;18.98;12.35;;;;;;;-0.52;100.00;94866.31;6206857;23;20122;-65
2021/12/05 03:58:58;;;;;;;19.10;12.68;;;;;;;-0.62;100.00;94860.88;6207289;23;20040;-65
2021/12/05 04:01:25;;;;;;;16.30;11.07;;;;;;;-0.68;100.00;94866.41;6206831;23;20008;-65
2021/12/05 04:03:52;;;;;;;14.38;10.20;;;;;;;-0.71;100.00;94862.25;6207359;23;20004;-65
2021/12/05 04:06:21;;;;;;;19.48;10.60;;;;;;;-0.73;100.00;94866.69;6206900;23;20016;-65
2021/12/05 04:08:48;;;;;;;12.98;8.65;;;;;;;-0.70;100.00;94863.06;6207445;23;20013;-65
2021/12/05 04:11:19;;;;;;;11.38;9.38;;;;;;;-0.62;100.00;94861.69;6180382;23;20054;-65
2021/12/05 04:13:45;;;;;;;12.45;8.98;;;;;;;-0.68;100.00;94861.22;6206685;23;20011;-65
2021/12/05 04:16:13;;;;;;;13.57;9.02;;;;;;;-0.75;100.00;94865.97;6206904;23;20011;-65
2021/12/05 04:18:39;;;;;;;8.80;7.70;;;;;;;-0.79;100.00;94865.31;6206966;23;20001;-65
2021/12/05 04:21:05;;;;;;;10.20;7.60;;;;;;;-0.80;100.00;94870.56;6206878;23;20009;-65
2021/12/05 04:23:31;;;;;;;11.93;7.45;;;;;;;-0.82;100.00;94864.66;6206590;23;20004;-65
2021/12/05 04:25:57;;;;;;;12.57;8.80;;;;;;;-0.81;100.00;94861.16;6180016;23;20337;-65
2021/12/05 04:28:24;;;;;;;11.07;9.13;;;;;;;-0.84;100.00;94851.00;6207321;23;20001;-65
2021/12/05 04:30:50;;;;;;;10.80;8.65;;;;;;;-0.89;100.00;94853.84;6207141;23;20459;-64
2021/12/05 04:33:16;;;;;;;8.32;6.75;;;;;;;-0.91;100.00;94851.38;6207010;23;20001;-64
2021/12/05 04:35:42;;;;;;;10.43;6.82;;;;;;;-0.88;100.00;94851.19;6206622;23;20032;-65
2021/12/05 04:38:08;;;;;;;17.02;14.23;;;;;;;-0.87;100.00;94855.44;6207114;23;20491;-64
2021/12/05 04:40:33;;;;;;;14.10;11.98;;;;;;;-0.90;100.00;94850.44;6206458;23;20016;-65
2021/12/05 04:43:00;;;;;;;11.05;9.50;;;;;;;-0.91;100.00;94846.22;6207029;22;20021;-64
2021/12/05 04:45:28;;;;;;;8.23;7.43;;;;;;;-0.94;100.00;94843.81;6207153;23;20008;-64
2021/12/05 04:47:55;;;;;;;14.80;10.52;;;;;;;-0.96;100.00;94842.22;6207588;23;20385;-65
2021/12/05 04:50:21;;;;;;;12.00;8.10;;;;;;;-1.00;100.00;94846.75;6207094;23;20405;-65
2021/12/05 04:52:47;;;;;;;12.20;9.40;;;;;;;-0.98;100.00;94852.69;6206461;22;20035;-64
2021/12/05 04:55:13;;;;;;;18.67;12.43;;;;;;;-1.01;100.00;94847.66;6207215;23;20444;-65
2021/12/05 04:57:40;;;;;;;15.00;9.63;;;;;;;-1.05;100.00;94838.44;6206382;23;20005;-64
2021/12/05 05:00:12;;;;;;;15.02;10.85;;;;;;;-1.10;100.00;94838.75;6206095;23;20458;-64
2021/12/05 05:02:37;;;;;;;15.77;11.85;;;;;;;-1.07;100.00;94841.13;6179834;23;20009;-65
2021/12/05 05:05:03;;;;;;;11.40;9.43;;;;;;;-1.10;100.00;94845.66;6206958;23;20347;-65
2021/12/05 05:07:28;;;;;;;15.70;12.75;;;;;;;-1.09;100.00;94847.31;6206642;23;20064;-64
2021/12/05 05:10:14;;;;;;;14.25;12.38;;;;;;;-1.11;100.00;94849.97;6207077;23;20008;-64
2021/12/05 05:12:39;;;;;;;13.20;11.68;;;;;;;-1.12;100.00;94857.81;6206163;23;19996;-64
2021/12/05 05:15:06;;;;;;;12.95;10.10;;;;;;;-1.16;100.00;94852.84;6180102;23;20009;-64
2021/12/05 05:17:33;;;;;;;8.82;7.70;;;;;;;-1.13;100.00;94851.81;6206593;23;20068;-64
2021/12/05 05:20:03;;;;;;;8.90;6.40;;;;;;;-1.12;100.00;94858.63;6205972;23;20135;-64
2021/12/05 05:22:49;;;;;;;9.40;5.43;;;;;;;-1.10;100.00;94861.16;6206595;23;20115;-64
2021/12/05 05:26:11;;;;;;;6.13;4.38;;;;;;;-1.08;100.00;94860.16;6206294;23;20528;-64
2021/12/05 05:46:51;;;;;;;20.48;14.73;;;;;;;-0.99;100.00;94824.34;6206162;23;20340;-64
2021/12/05 05:52:01;;;;;;;34.25;27.67;;;;;;;-0.98;100.00;94828.56;6206362;23;20008;-64
2021/12/05 05:54:26;;;;;;;24.90;20.35;;;;;;;-0.95;100.00;94823.22;6206547;23;20001;-64
2021/12/05 05:56:58;;;;;;;25.17;19.77;;;;;;;-0.94;100.00;94824.88;6206473;23;20012;-64
2021/12/05 05:59:33;;;;;;;23.35;19.15;;;;;;;-0.93;100.00;94821.38;6206118;23;20074;-64
2021/12/05 06:04:35;;;;;;;18.85;14.93;;;;;;;-0.75;100.00;94820.25;6205963;23;20007;-64
2021/12/05 06:07:01;;;;;;;20.35;12.70;;;;;;;-0.86;100.00;94814.91;6206139;23;20004;-64
2021/12/05 06:09:26;;;;;;;14.02;10.38;;;;;;;-0.89;100.00;94810.75;6207300;22;20005;-64
2021/12/05 06:11:52;;;;;;;18.15;13.75;;;;;;;-0.76;100.00;94805.66;6205783;23;20028;-64
2021/12/05 06:14:17;;;;;;;11.38;8.73;;;;;;;-0.61;100.00;94801.28;6206198;23;20036;-64
2021/12/05 06:16:43;;;;;;;9.88;8.88;;;;;;;-0.64;100.00;94793.72;6205962;23;20404;-64
2021/12/05 06:19:08;;;;;;;20.00;14.40;;;;;;;-0.57;100.00;94794.19;6205671;23;20004;-64
2021/12/05 06:21:34;;;;;;;14.57;11.88;;;;;;;-0.58;100.00;94790.75;6205410;23;20472;-64
2021/12/05 06:24:00;;;;;;;8.60;7.68;;;;;;;-0.71;100.00;94789.88;6206299;23;20008;-64
2021/12/05 06:26:25;;;;;;;12.88;8.25;;;;;;;-0.91;100.00;94776.44;6205614;23;20019;-64
2021/12/05 06:29:05;;;;;;;12.13;9.32;;;;;;;-0.97;100.00;94776.81;6205628;23;20011;-64
2021/12/05 06:31:52;;;;;;;13.55;9.27;;;;;;;-0.99;100.00;94775.25;6206571;23;20356;-64
2021/12/05 06:40:04;;;;;;;18.02;13.75;;;;;;;-1.09;100.00;94764.63;6207442;23;20088;-64
2021/12/05 06:47:58;;;;;;;16.77;14.00;;;;;;;-1.18;100.00;94771.19;6207245;23;20149;-64
2021/12/05 06:50:23;;;;;;;17.48;13.80;;;;;;;-1.20;100.00;94771.28;6206772;23;20047;-64
2021/12/05 06:52:49;;;;;;;13.77;12.32;;;;;;;-1.06;100.00;94772.19;6207416;23;20318;-64
2021/12/05 06:55:16;;;;;;;15.02;13.43;;;;;;;-1.12;100.00;94780.31;6207675;23;20013;-64
2021/12/05 06:57:43;;;;;;;17.98;15.27;;;;;;;-1.20;100.00;94779.03;6206679;23;20005;-64
2021/12/05 07:00:13;;;;;;;16.50;14.40;;;;;;;-1.19;100.00;94779.84;6207216;23;20000;-65
2021/12/05 07:02:39;;;;;;;15.60;13.23;;;;;;;-1.17;100.00;94783.19;6206497;23;20011;-64
2021/12/05 07:05:31;;;;;;;21.60;15.38;;;;;;;-1.14;100.00;94779.59;6207604;23;20362;-64
2021/12/05 07:07:55;;;;;;;19.33;14.63;;;;;;;-1.16;100.00;94775.34;6206813;23;20017;-64
2021/12/05 07:10:21;;;;;;;17.13;13.43;;;;;;;-1.17;100.00;94771.09;6206507;23;20401;-64
2021/12/05 07:25:47;;;;;;;11.85;9.40;;;;;;;-1.13;100.00;94782.06;6206706;23;20100;-64
2021/12/05 07:42:00;;;;;;;15.48;12.57;;;;;;;-0.98;100.00;94776.91;6205928;23;20113;-69
2021/12/05 07:44:26;;;;;;;29.42;24.02;;;;;;;-0.98;100.00;94777.75;6206738;23;20008;-67
2021/12/05 07:46:51;;;;;;;21.60;19.20;;;;;;;-0.95;100.00;94781.88;6206068;23;20009;-66
2021/12/05 07:49:17;;;;;;;32.22;21.98;;;;;;;-0.95;100.00;94774.97;6206598;23;20085;-66
2021/12/05 07:51:47;;;;;;;26.27;19.70;;;;;;;-0.93;100.00;94780.03;6206272;23;20004;-66
2021/12/05 07:54:39;;;;;;;31.83;25.02;;;;;;;-0.90;100.00;94778.09;6206869;23;20000;-70
2021/12/05 07:57:21;;;;;;;29.33;25.00;;;;;;;-0.83;100.00;94775.13;6207254;23;20465;-69
2021/12/05 08:16:01;;;;;;;33.05;29.05;;;;;;;-0.46;100.00;94770.22;6207108;23;20405;-70
2021/12/05 08:18:28;;;;;;;31.23;26.52;;;;;;;-0.38;100.00;94774.94;6207070;23;20008;-67
2021/12/05 08:20:54;;;;;;;31.92;28.45;;;;;;;-0.33;100.00;94778.88;6206747;23;20027;-65
2021/12/05 08:23:22;;;;;;;32.58;28.77;;;;;;;-0.30;100.00;94773.50;6206912;23;20075;-64
2021/12/05 08:25:55;;;;;;;35.45;28.42;;;;;;;-0.21;100.00;94769.50;6206782;23;20015;-64
2021/12/05 08:31:13;;;;;;;27.45;24.23;;;;;;;-0.09;100.00;94770.47;6207120;23;20395;-66
2021/12/05 08:34:02;;;;;;;52.65;33.40;;;;;;;-0.03;100.00;94774.41;6206966;23;20024;-67
2021/12/05 08:42:36;;;;;;;21.23;16.77;;;;;;;-0.02;100.00;94765.69;6206596;23;20019;-67
2021/12/05 09:21:25;;;;;;;14.85;11.23;;;;;;;0.93;100.00;94773.22;6206629;23;20016;-67
2021/12/05 09:26:16;;;;;;;16.83;15.02;;;;;;;0.98;100.00;94772.91;6206065;23;20343;-68
2021/12/05 10:14:33;;;;;;;5.53;4.82;;;;;;;1.46;100.00;94799.91;6207844;23;20405;-69
2021/12/05 10:38:50;;;;;;;10.32;6.88;;;;;;;1.49;100.00;94774.53;6206417;23;20014;-65
2021/12/05 10:43:54;;;;;;;19.42;11.55;;;;;;;1.78;98.20;94771.66;6208001;23;20009;-65
2021/12/05 10:46:23;;;;;;;8.85;6.55;;;;;;;1.59;100.00;94772.13;6207929;23;20054;-66
2021/12/05 10:48:54;;;;;;;9.25;5.60;;;;;;;1.54;99.55;94772.44;6207767;23;20017;-65
2021/12/05 10:51:27;;;;;;;8.82;5.72;;;;;;;1.52;100.00;94783.88;6207088;23;20008;-66
2021/12/05 10:53:55;;;;;;;12.98;7.10;;;;;;;1.58;100.00;94788.63;6206529;23;20017;-65
2021/12/05 10:56:27;;;;;;;8.95;5.60;;;;;;;1.49;100.00;94790.09;6207462;23;20058;-65
2021/12/05 10:58:56;;;;;;;7.97;4.35;;;;;;;1.38;100.00;94788.28;6204102;23;20000;-66
2021/12/05 11:01:27;;;;;;;5.38;4.63;;;;;;;1.86;97.50;94789.25;6207297;23;20076;-66
2021/12/05 11:04:04;;;;;;;6.30;5.68;;;;;;;1.54;97.04;94777.63;6208128;23;20467;-65
2021/12/05 11:06:37;;;;;;;14.27;8.63;;;;;;;1.50;98.15;94778.78;6207326;23;20343;-65
2021/12/05 11:09:09;;;;;;;12.75;8.88;;;;;;;1.26;100.00;94779.59;6207366;23;20039;-65
2021/12/05 11:11:36;;;;;;;13.35;7.30;;;;;;;1.08;100.00;94779.13;6207402;22;20004;-65
2021/12/05 11:14:06;;;;;;;14.50;9.73;;;;;;;1.05;100.00;94774.16;6206437;22;20333;-65
2021/12/05 11:16:37;;;;;;;16.85;9.65;;;;;;;1.07;100.00;94774.88;6205225;23;20356;-66
2021/12/05 11:19:21;;;;;;;8.75;6.68;;;;;;;1.12;100.00;94782.34;6207073;23;20081;-65
2021/12/05 11:21:56;;;;;;;12.00;7.90;;;;;;;1.19;100.00;94778.38;6206894;23;20340;-65
2021/12/05 11:24:34;;;;;;;10.85;7.45;;;;;;;1.25;100.00;94762.38;6207312;23;20420;-65
2021/12/05 11:27:05;;;;;;;19.63;16.42;;;;;;;1.33;100.00;94764.44;6206787;23;20035;-65
2021/12/05 11:30:14;;;;;;;14.20;11.38;;;;;;;1.34;100.00;94765.28;6207561;23;20009;-65
2021/12/05 11:33:02;;;;;;;14.73;9.80;;;;;;;1.42;100.00;94766.38;6206858;22;20032;-65
2021/12/05 11:35:50;;;;;;;17.42;13.15;;;;;;;1.48;100.00;94762.50;6206456;23;20013;-65
2021/12/05 11:38:20;;;;;;;11.73;9.18;;;;;;;1.58;100.00;94762.69;6207172;23;20076;-65
2021/12/05 11:41:07;;;;;;;12.80;10.80;;;;;;;1.57;100.00;94759.28;6206764;23;20460;-65
2021/12/05 11:43:33;;;;;;;14.10;11.25;;;;;;;1.49;100.00;94763.34;6206969;23;20000;-65
2021/12/05 11:46:07;;;;;;;17.30;12.70;;;;;;;1.53;100.00;94751.81;6205916;23;20008;-65
2021/12/05 11:48:58;;;;;;;12.45;7.82;;;;;;;1.38;100.00;94756.34;6206429;23;20001;-66
2021/12/05 11:51:32;;;;;;;7.50;5.55;;;;;;;1.27;100.00;94754.50;6206988;23;20001;-66
2021/12/05 11:54:03;;;;;;;8.38;6.75;;;;;;;1.28;100.00;94740.59;6207125;23;20009;-65
2021/12/05 11:56:31;;;;;;;6.50;5.88;;;;;;;1.31;100.00;94749.91;6206618;23;20005;-65
2021/12/05 11:59:02;;;;;;;8.30;7.47;;;;;;;1.47;100.00;94742.69;6207521;23;20008;-66
2021/12/05 12:01:35;;;;;;;6.55;5.82;;;;;;;1.62;100.00;94747.75;6207377;23;20043;-65
2021/12/05 12:04:01;;;;;;;7.07;6.38;;;;;;;1.76;100.00;94741.53;6207194;22;20436;-67
2021/12/05 12:06:26;;;;;;;9.27;6.07;;;;;;;1.86;100.00;94739.91;6207395;23;20047;-67
2021/12/05 12:08:52;;;;;;;9.80;5.97;;;;;;;1.98;100.00;94736.44;6206509;23;20001;-67
2021/12/05 12:11:18;;;;;;;6.35;5.80;;;;;;;2.09;100.00;94740.00;6207158;23;20004;-66
2021/12/05 12:13:43;;;;;;;9.48;6.53;;;;;;;2.23;100.00;94742.41;6206923;23;20005;-66
2021/12/05 12:16:12;;;;;;;7.80;7.00;;;;;;;2.27;100.00;94736.03;6206926;23;20008;-67
2021/12/05 12:18:40;;;;;;;7.53;6.80;;;;;;;2.31;100.00;94738.41;6207133;23;20035;-67
2021/12/05 12:21:11;;;;;;;7.63;6.32;;;;;;;2.19;100.00;94742.75;6206885;23;20034;-68
2021/12/05 12:23:37;;;;;;;10.90;6.45;;;;;;;2.04;100.00;94736.91;6206627;23;20036;-66
2021/12/05 12:26:05;;;;;;;6.72;6.13;;;;;;;1.82;100.00;94734.16;6206992;23;20016;-66
2021/12/05 12:28:30;;;;;;;6.18;5.55;;;;;;;1.68;100.00;94735.16;6206776;22;20412;-67
2021/12/05 12:31:14;;;;;;;6.38;5.78;;;;;;;1.51;100.00;94735.53;6207141;23;20033;-66
2021/12/05 12:33:49;;;;;;;8.35;7.65;;;;;;;1.53;100.00;94736.25;6206491;23;20008;-66
2021/12/05 12:36:14;;;;;;;9.27;7.70;;;;;;;1.50;100.00;94734.69;6207113;23;20017;-68
2021/12/05 12:38:44;;;;;;;8.65;7.75;;;;;;;1.53;100.00;94741.44;6206316;23;20232;-68
2021/12/05 12:41:18;;;;;;;12.07;10.52;;;;;;;1.51;100.00;94741.53;6206992;23;20000;-67
2021/12/05 12:44:04;;;;;;;31.88;24.25;;;;;;;1.57;100.00;94738.53;6206829;23;20506;-66
2021/12/05 12:46:36;;;;;;;25.30;19.67;;;;;;;1.32;100.00;94739.44;6206743;23;20113;-65
2021/12/05 12:49:16;;;;;;;21.15;15.82;;;;;;;1.28;100.00;94744.00;6206779;23;20348;-65
2021/12/05 12:52:05;;;;;;;14.70;12.98;;;;;;;1.27;100.00;94736.34;6206499;23;20001;-65
2021/12/05 12:54:50;;;;;;;8.52;7.13;;;;;;;1.18;100.00;94732.63;6206950;23;20028;-65
2021/12/05 12:57:24;;;;;;;12.75;11.45;;;;;;;1.15;100.00;94740.63;6205732;23;20013;-65
2021/12/05 13:00:03;;;;;;;11.68;10.55;;;;;;;1.06;100.00;94744.69;6205938;23;20069;-65
2021/12/05 13:02:50;;;;;;;12.27;11.07;;;;;;;1.04;100.00;94751.75;6206841;23;20007;-65
2021/12/05 13:11:23;;;;;;;8.30;7.47;;;;;;;0.98;100.00;94755.59;6206668;23;20057;-66
2021/12/05 13:14:05;;;;;;;7.90;6.90;;;;;;;0.96;100.00;94747.09;6205882;22;20012;-66
2021/12/05 13:16:36;;;;;;;10.60;9.25;;;;;;;0.96;100.00;94752.28;6206763;23;20008;-66
2021/12/05 13:19:27;;;;;;;9.93;9.02;;;;;;;0.91;100.00;94756.97;6207174;23;20001;-65
2021/12/05 13:22:02;;;;;;;11.13;9.02;;;;;;;0.96;100.00;94757.47;6205921;23;20729;-65
2021/12/05 13:24:41;;;;;;;10.65;9.73;;;;;;;0.82;100.00;94760.16;6207184;23;20378;-65
2021/12/05 13:27:09;;;;;;;11.38;10.27;;;;;;;0.87;100.00;94767.63;6206535;23;20107;-65
2021/12/05 13:29:56;;;;;;;10.90;9.95;;;;;;;0.69;100.00;94768.78;6207051;23;20015;-65
2021/12/05 13:32:29;;;;;;;13.65;12.27;;;;;;;0.59;100.00;94770.34;6206795;22;20000;-65
2021/12/05 13:34:59;;;;;;;16.75;14.00;;;;;;;0.43;100.00;94766.19;6206401;23;20008;-65
2021/12/05 13:37:42;;;;;;;15.50;13.32;;;;;;;0.35;100.00;94775.41;6206542;23;20072;-65
2021/12/05 13:40:23;;;;;;;12.55;10.50;;;;;;;0.22;100.00;94767.59;6205950;23;20470;-65
2021/12/05 13:43:08;;;;;;;10.98;9.88;;;;;;;0.26;100.00;94771.69;6206587;23;20008;-65
2021/12/05 13:45:41;;;;;;;10.35;9.25;;;;;;;0.11;100.00;94773.50;6206836;23;20083;-65
2021/12/05 13:48:27;;;;;;;12.38;9.07;;;;;;;-0.01;100.00;94775.13;6206657;23;20009;-65
2021/12/05 13:51:05;;;;;;;9.45;8.55;;;;;;;-0.06;100.00;94775.44;6206332;22;20329;-65
2021/12/05 13:53:51;;;;;;;11.93;9.50;;;;;;;-0.15;100.00;94782.03;6207290;22;20336;-65
2021/12/05 13:56:24;;;;;;;9.13;8.20;;;;;;;-0.20;100.00;94784.09;6206422;23;20443;-65
2021/12/05 13:58:53;;;;;;;8.35;7.55;;;;;;;-0.29;100.00;94787.25;6206340;23;20005;-65
2021/12/05 14:01:26;;;;;;;8.73;7.93;;;;;;;-0.28;100.00;94791.50;6205714;23;20470;-65
2021/12/05 14:04:16;;;;;;;9.27;8.32;;;;;;;-0.32;100.00;94796.06;6206064;23;20474;-64
2021/12/05 14:07:05;;;;;;;9.43;8.52;;;;;;;-0.39;100.00;94797.34;6205798;22;20001;-65
2021/12/05 14:09:32;;;;;;;11.23;10.20;;;;;;;-0.44;100.00;94802.00;6206229;23;20024;-64
2021/12/05 14:12:19;;;;;;;35.10;25.48;;;;;;;-0.34;100.00;94808.22;6205264;23;20020;-64
2021/12/05 14:14:49;;;;;;;48.88;33.15;;;;;;;-0.42;100.00;94809.69;6204587;23;20462;-64
2021/12/05 14:17:20;;;;;;;26.10;20.27;;;;;;;-0.45;100.00;94806.31;6204682;23;20008;-65
2021/12/05 14:19:54;;;;;;;15.55;13.95;;;;;;;-0.47;100.00;94807.38;6178284;23;20008;-65
2021/12/05 14:22:22;;;;;;;22.05;17.60;;;;;;;-0.48;100.00;94805.72;6205962;23;20005;-65
2021/12/05 14:24:54;;;;;;;18.40;15.82;;;;;;;-0.52;100.00;94799.06;6205671;23;20004;-64
2021/12/05 14:27:24;;;;;;;17.65;15.80;;;;;;;-0.53;100.00;94807.75;6205292;23;20009;-65
2021/12/05 14:29:51;;;;;;;17.02;15.27;;;;;;;-0.50;100.00;94808.38;6205082;23;20458;-64
2021/12/05 14:32:29;;;;;;;18.13;16.23;;;;;;;-0.48;100.00;94805.72;6179091;23;20326;-65
2021/12/05 14:34:59;;;;;;;19.40;17.50;;;;;;;-0.44;100.00;94814.94;6206116;23;20097;-65
2021/12/05 14:37:27;;;;;;;19.60;17.60;;;;;;;-0.37;100.00;94815.38;6206013;23;20001;-65
2021/12/05 14:39:59;;;;;;;26.05;23.33;;;;;;;-0.32;100.00;94821.09;6206054;22;20340;-65
2021/12/05 14:42:28;;;;;;;23.55;21.27;;;;;;;-0.37;100.00;94830.91;6205788;23;20333;-65
2021/12/05 14:44:57;;;;;;;19.65;17.65;;;;;;;-0.35;100.00;94832.44;6179558;23;20340;-64
2021/12/05 14:47:25;;;;;;;27.67;24.88;;;;;;;-0.32;100.00;94831.44;6205851;23;20106;-65
2021/12/05 14:49:54;;;;;;;19.60;17.65;;;;;;;-0.24;100.00;94838.72;6205936;23;20005;-65
2021/12/05 14:52:27;;;;;;;21.73;19.52;;;;;;;-0.19;100.00;94839.25;6206603;23;20008;-65
2021/12/05 14:54:54;;;;;;;31.00;26.60;;;;;;;-0.21;100.00;94835.94;6207381;23;20008;-65
2021/12/05 14:57:25;;;;;;;44.72;39.10;;;;;;;-0.24;100.00;94836.13;6207390;23;20092;-64
2021/12/05 14:59:59;;;;;;;22.00;19.83;;;;;;;-0.24;100.00;94844.69;6206839;23;20027;-64
2021/12/05 15:02:24;;;;;;;20.77;18.63;;;;;;;-0.17;100.00;94852.91;6180822;23;20088;-64
2021/12/05 15:04:52;;;;;;;18.13;16.38;;;;;;;-0.24;100.00;94854.25;6180213;23;20035;-64
2021/12/05 15:07:19;;;;;;;17.17;15.55;;;;;;;-0.31;100.00;94852.03;6206807;23;20012;-64
2021/12/05 15:09:48;;;;;;;28.10;25.23;;;;;;;-0.33;100.00;94856.50;6207406;23;20000;-64
2021/12/05 15:12:20;;;;;;;23.85;21.52;;;;;;;-0.29;100.00;94862.28;6207518;23;20000;-65
2021/12/05 15:14:47;;;;;;;22.73;20.30;;;;;;;-0.27;100.00;94863.00;6207345;23;20005;-64
2021/12/05 15:17:16;;;;;;;26.55;22.42;;;;;;;-0.25;100.00;94870.69;6208058;23;20005;-64
2021/12/05 15:19:45;;;;;;;25.63;23.08;;;;;;;-0.24;100.00;94867.16;6207293;23;20452;-64
2021/12/05 15:22:12;;;;;;;20.95;18.95;;;;;;;-0.27;100.00;94873.34;6207355;23;20034;-64
2021/12/05 15:24:40;;;;;;;24.85;20.50;;;;;;;-0.26;100.00;94874.19;6207069;23;20000;-65
2021/12/05 15:27:12;;;;;;;47.65;36.63;;;;;;;-0.35;100.00;94879.00;6206745;23;20069;-64
2021/12/05 15:29:38;;;;;;;72.05;56.97;;;;;;;-0.38;100.00;94876.63;6206877;23;20001;-65
2021/12/05 15:32:04;;;;;;;59.10;47.83;;;;;;;-0.39;100.00;94877.53;6206917;23;20360;-65
2021/12/05 15:34:33;;;;;;;49.90;43.40;;;;;;;-0.34;100.00;94890.19;6207061;23;20001;-64
2021/12/05 15:37:07;;;;;;;48.38;43.03;;;;;;;-0.35;100.00;94883.38;6206505;23;20001;-64
2021/12/05 15:39:32;;;;;;;53.80;47.88;;;;;;;-0.35;100.00;94880.78;6207165;22;20009;-63
2021/12/05 15:41:59;;;;;;;54.97;49.03;;;;;;;-0.34;100.00;94880.66;6207077;23;20032;-63
2021/12/05 15:44:39;;;;;;;44.55;39.80;;;;;;;-0.39;100.00;94880.13;6180421;23;20087;-65
2021/12/05 15:47:30;;;;;;;40.88;36.53;;;;;;;-0.43;100.00;94886.41;6205450;23;20032;-64
2021/12/05 15:50:08;;;;;;;40.80;36.15;;;;;;;-0.38;100.00;94893.91;6205491;23;20030;-66
2021/12/05 15:52:38;;;;;;;46.92;40.05;;;;;;;-0.34;100.00;94885.84;6207147;23;20019;-66
2021/12/05 15:55:08;;;;;;;54.75;45.60;;;;;;;-0.33;100.00;94900.47;6205962;23;20015;-66
2021/12/05 15:57:37;;;;;;;48.95;42.92;;;;;;;-0.36;100.00;94900.63;6205718;23;20016;-67
2021/12/05 16:00:10;;;;;;;59.88;49.45;;;;;;;-0.41;100.00;94894.09;6206379;23;20355;-66
2021/12/05 16:02:36;;;;;;;59.97;48.60;;;;;;;-0.46;100.00;94891.78;6206478;23;20008;-66
2021/12/05 16:05:11;;;;;;;50.45;42.72;;;;;;;-0.46;100.00;94899.53;6206659;23;20083;-65
2021/12/05 16:07:37;;;;;;;53.88;45.40;;;;;;;-0.43;100.00;94896.75;6206527;23;20497;-63
2021/12/05 16:10:12;;;;;;;49.38;42.30;;;;;;;-0.43;100.00;94907.09;6206585;23;20009;-65
2021/12/05 16:12:40;;;;;;;38.95;34.40;;;;;;;-0.41;100.00;94918.19;6206623;23;20001;-68
2021/12/05 16:15:06;;;;;;;44.65;38.25;;;;;;;-0.05;100.00;94910.81;6203186;23;20015;-65
2021/12/05 16:17:31;;;;;;;34.42;29.73;;;;;;;-0.08;100.00;94909.28;6205884;23;20008;-64
2021/12/05 16:20:09;;;;;;;28.35;25.35;;;;;;;-0.27;100.00;94906.19;6206456;23;20756;-63
2021/12/05 16:23:13;;;;;;;25.73;23.10;;;;;;;-0.39;100.00;94908.56;6206405;23;20011;-60
2021/12/05 16:25:56;;;;;;;26.60;23.00;;;;;;;-0.38;100.00;94910.25;6205927;23;20057;-57
2021/12/05 16:28:53;;;;;;;28.08;25.10;;;;;;;-0.44;100.00;94900.28;6206069;23;20011;-60
2021/12/05 16:31:20;;;;;;;35.72;31.75;;;;;;;-0.43;100.00;94904.53;6204810;22;20141;-60
2021/12/05 16:33:52;;;;;;;31.42;28.20;;;;;;;-0.42;100.00;94898.44;6206471;23;20011;-61
2021/12/05 16:36:19;;;;;;;35.65;32.05;;;;;;;-0.45;100.00;94885.69;6206570;22;20052;-60
2021/12/05 16:38:51;;;;;;;35.17;31.50;;;;;;;-0.48;100.00;94885.88;6205554;23;20004;-61
2021/12/05 16:41:25;;;;;;;29.13;25.95;;;;;;;-0.52;100.00;94879.25;6206331;23;20001;-60
2021/12/05 16:44:01;;;;;;;38.58;31.10;;;;;;;-0.47;100.00;94880.59;6205977;23;20005;-60
2021/12/05 16:46:31;;;;;;;51.15;44.08;;;;;;;-0.48;100.00;94872.94;6205697;23;20032;-60
2021/12/05 16:49:00;;;;;;;50.45;38.67;;;;;;;-0.49;100.00;94879.03;6205997;23;20411;-60
2021/12/05 16:51:30;;;;;;;56.00;50.10;;;;;;;-0.49;100.00;94869.53;6206783;23;20013;-60
2021/12/05 16:54:03;;;;;;;74.07;60.55;;;;;;;-0.50;100.00;94870.44;6206469;23;20636;-60
2021/12/05 16:56:38;;;;;;;51.25;40.83;;;;;;;-0.56;100.00;94872.56;6205829;23;20004;-60
2021/12/05 16:59:07;;;;;;;25.00;22.40;;;;;;;-0.54;100.00;94871.56;6206213;23;20007;-60
2021/12/05 17:01:33;;;;;;;26.73;21.85;;;;;;;-0.48;100.00;94883.28;6206008;23;20235;-60
2021/12/05 17:03:58;;;;;;;33.85;25.92;;;;;;;-0.42;100.00;94877.72;6205398;23;20004;-61